Time;durP1;ratioP1;P1;durP2;ratioP2;P2;SDS_P1;SDS_P2;PMS_P1;PMS_P2;Temp;Humidity;BMP_temperature;BMP_pressure;BME280_temperature;BME280_humidity;BME280_pressure;Samples;Min_cycle;Max_cycle;Signal;HPM_P1;HPM_P2
2023/10/03 03:00:43;;;;;;;;;;;17.80;99.90;;;;;;5901701;23;20046;-75
2023/10/03 03:03:12;;;;;;;32.70;15.18;;;17.90;99.90;;;;;;4995239;28;19924;-78
2023/10/03 03:05:38;;;;;;;39.45;16.27;;;17.90;99.90;;;;;;4995230;28;20050;-76
2023/10/03 03:11:05;;;;;;;38.47;15.02;;;17.90;99.90;;;;;;4995187;28;20050;-76
2023/10/03 03:13:32;;;;;;;34.40;15.38;;;18.00;99.90;;;;;;4995103;28;20057;-78
2023/10/03 03:16:00;;;;;;;34.15;15.43;;;18.00;99.90;;;;;;4996993;28;20057;-74
2023/10/03 03:18:26;;;;;;;37.13;15.65;;;18.00;99.90;;;;;;4996855;28;20049;-75
2023/10/03 03:20:58;;;;;;;33.10;15.20;;;18.10;99.90;;;;;;4995187;28;20043;-76
2023/10/03 03:23:36;;;;;;;40.10;16.40;;;18.10;99.90;;;;;;4994929;28;20038;-77
2023/10/03 03:26:21;;;;;;;36.72;15.32;;;18.10;99.90;;;;;;4995991;28;20537;-77
2023/10/03 03:28:50;;;;;;;32.85;14.60;;;18.10;99.90;;;;;;4994806;28;20101;-79
2023/10/03 03:31:22;;;;;;;34.60;15.35;;;18.10;99.90;;;;;;4994660;28;20051;-77
2023/10/03 03:33:49;;;;;;;35.63;15.18;;;18.10;99.90;;;;;;4994825;28;20129;-77
2023/10/03 03:36:22;;;;;;;34.83;15.40;;;18.20;99.90;;;;;;4994646;28;20105;-76
2023/10/03 03:38:49;;;;;;;36.72;14.80;;;18.20;99.90;;;;;;4994594;28;20042;-76
2023/10/03 03:41:16;;;;;;;38.58;15.82;;;18.20;99.90;;;;;;4994427;28;20047;-76
2023/10/03 03:43:47;;;;;;;33.80;15.02;;;18.20;99.90;;;;;;4994799;28;20119;-76
2023/10/03 03:46:14;;;;;;;34.58;15.70;;;18.20;99.90;;;;;;4978367;28;20229;-76
2023/10/03 03:48:40;;;;;;;34.50;14.75;;;18.20;99.90;;;;;;4995690;28;20042;-75
2023/10/03 03:51:11;;;;;;;34.53;15.02;;;18.30;99.90;;;;;;4995808;28;20096;-77
2023/10/03 03:53:36;;;;;;;36.30;14.60;;;18.30;99.90;;;;;;4994393;28;20544;-76
2023/10/03 03:56:09;;;;;;;32.75;14.55;;;18.30;99.90;;;;;;4995510;28;20043;-75
2023/10/03 03:58:40;;;;;;;;;;;18.40;99.90;;;;;;4996330;28;20089;-76
2023/10/03 04:01:12;;;;;;;39.95;14.35;;;18.50;99.90;;;;;;4993830;28;20000;-79
2023/10/03 04:03:38;;;;;;;33.35;13.15;;;18.50;99.90;;;;;;4994276;28;20046;-77
2023/10/03 04:06:05;;;;;;;36.40;15.35;;;18.60;99.90;;;;;;4994114;28;20043;-77
2023/10/03 04:08:31;;;;;;;32.75;13.93;;;18.60;99.90;;;;;;4994519;28;20042;-76
2023/10/03 04:10:58;;;;;;;37.08;14.40;;;18.60;99.90;;;;;;4994067;28;20111;-79
2023/10/03 04:13:24;;;;;;;32.88;14.15;;;18.60;99.90;;;;;;4994378;28;20042;-79
2023/10/03 04:15:50;;;;;;;31.98;14.02;;;18.60;99.90;;;;;;4994053;28;20038;-77
2023/10/03 04:18:17;;;;;;;31.13;13.77;;;18.60;99.90;;;;;;4994142;28;20492;-75
2023/10/03 04:20:46;;;;;;;31.83;14.05;;;18.60;99.90;;;;;;4993871;28;20482;-77
2023/10/03 04:23:13;;;;;;;39.47;14.40;;;18.60;99.90;;;;;;4993776;28;20050;-76
2023/10/03 04:25:40;;;;;;;31.20;13.05;;;18.80;99.90;;;;;;4993853;28;20052;-79
2023/10/03 04:28:06;;;;;;;31.27;14.25;;;18.80;99.90;;;;;;4995255;28;20050;-79
2023/10/03 04:30:32;;;;;;;31.05;13.68;;;18.80;99.90;;;;;;4993667;28;20523;-78
2023/10/03 04:32:58;;;;;;;29.80;12.93;;;18.90;99.90;;;;;;4993641;28;20046;-76
2023/10/03 04:35:25;;;;;;;30.20;12.85;;;19.00;99.90;;;;;;4993358;28;20042;-75
2023/10/03 04:37:52;;;;;;;29.58;12.52;;;19.00;99.90;;;;;;4977660;28;20149;-77
2023/10/03 04:40:22;;;;;;;27.90;11.95;;;19.00;99.90;;;;;;4993617;28;20104;-75
2023/10/03 04:42:55;;;;;;;28.35;11.27;;;19.10;99.90;;;;;;4993152;28;20042;-80
2023/10/03 04:45:22;;;;;;;27.98;11.43;;;19.20;99.90;;;;;;4991705;28;20050;-78
2023/10/03 04:47:48;;;;;;;26.02;10.07;;;19.20;99.90;;;;;;4993575;28;20042;-78
2023/10/03 04:50:18;;;;;;;29.08;10.52;;;19.20;99.90;;;;;;4993279;28;20121;-76
2023/10/03 04:52:48;;;;;;;31.15;10.82;;;19.30;99.90;;;;;;4992205;28;20048;-77
2023/10/03 04:55:18;;;;;;;28.75;10.18;;;19.30;99.90;;;;;;4992070;28;20053;-77
2023/10/03 04:57:45;;;;;;;27.30;10.40;;;19.40;99.90;;;;;;4992271;28;20180;-77
2023/10/03 05:00:18;;;;;;;28.33;11.38;;;19.40;99.90;;;;;;4993114;28;20038;-76
2023/10/03 05:02:52;;;;;;;26.42;10.88;;;19.40;99.90;;;;;;4993394;28;20398;-78
2023/10/03 05:05:25;;;;;;;32.53;11.50;;;19.40;99.90;;;;;;4993333;28;20085;-78
2023/10/03 05:07:53;;;;;;;29.75;10.27;;;19.40;99.90;;;;;;4994330;28;20038;-76
2023/10/03 05:10:23;;;;;;;30.42;11.95;;;19.40;99.90;;;;;;4994115;28;20091;-78
2023/10/03 05:12:51;;;;;;;28.50;11.27;;;19.40;99.90;;;;;;4992381;28;20042;-78
2023/10/03 05:15:17;;;;;;;27.17;10.93;;;19.40;99.90;;;;;;4992976;28;20093;-79
2023/10/03 05:17:43;;;;;;;37.10;10.98;;;19.40;99.90;;;;;;4992865;28;20501;-77
2023/10/03 05:20:11;;;;;;;29.70;11.48;;;19.30;99.90;;;;;;4994107;28;20077;-76
2023/10/03 05:22:36;;;;;;;30.67;12.23;;;19.30;99.90;;;;;;4992993;28;20362;-78
2023/10/03 05:25:03;;;;;;;29.40;12.13;;;19.30;99.90;;;;;;4992723;28;20038;-76
2023/10/03 05:27:29;;;;;;;33.63;11.63;;;19.20;99.90;;;;;;4992701;28;20061;-76
2023/10/03 05:29:59;;;;;;;31.35;12.05;;;19.20;99.90;;;;;;4992687;28;20050;-76
2023/10/03 05:32:28;;;;;;;36.83;13.43;;;19.20;99.90;;;;;;4992758;28;20402;-76
2023/10/03 05:34:54;;;;;;;34.40;12.90;;;19.10;99.90;;;;;;4992518;28;20502;-77
2023/10/03 05:37:20;;;;;;;32.78;13.32;;;19.20;99.90;;;;;;4992846;28;20050;-77
2023/10/03 05:39:45;;;;;;;34.30;12.55;;;19.10;99.90;;;;;;4976413;28;20068;-75
2023/10/03 05:42:11;;;;;;;39.05;13.18;;;19.10;99.90;;;;;;4992240;28;20049;-78
2023/10/03 05:44:37;;;;;;;32.00;12.38;;;19.10;99.90;;;;;;4992389;28;20046;-76
2023/10/03 05:47:03;;;;;;;31.00;11.10;;;19.00;99.90;;;;;;4994155;28;20089;-78
2023/10/03 05:49:29;;;;;;;26.77;10.75;;;19.00;99.90;;;;;;4992672;28;20137;-78
2023/10/03 05:51:57;;;;;;;29.42;10.82;;;19.00;99.90;;;;;;4992354;28;20472;-76
2023/10/03 05:54:25;;;;;;;28.38;9.93;;;18.90;99.90;;;;;;4992426;28;20050;-76
2023/10/03 05:56:51;;;;;;;26.55;9.60;;;18.90;99.90;;;;;;4992292;28;20053;-77
2023/10/03 05:59:20;;;;;;;24.83;9.20;;;18.90;99.90;;;;;;4992314;28;20097;-83
2023/10/03 06:01:47;;;;;;;22.98;8.45;;;18.80;99.90;;;;;;4991925;28;20047;-75
2023/10/03 06:04:12;;;;;;;19.92;8.05;;;18.80;99.90;;;;;;4993635;28;20092;-75
2023/10/03 06:06:38;;;;;;;29.48;8.52;;;18.80;99.90;;;;;;4992837;28;20050;-75
2023/10/03 06:09:04;;;;;;;21.92;8.63;;;18.80;99.90;;;;;;4992105;28;20141;-77
2023/10/03 06:11:30;;;;;;;24.40;7.57;;;18.80;99.90;;;;;;4992149;28;20050;-81
2023/10/03 06:13:59;;;;;;;21.88;8.15;;;18.80;99.90;;;;;;4992007;28;20100;-78
2023/10/03 06:16:28;;;;;;;17.33;7.38;;;18.80;99.90;;;;;;4992067;28;20054;-77
2023/10/03 06:18:54;;;;;;;19.00;7.18;;;18.80;99.90;;;;;;4993110;28;20441;-77
2023/10/03 06:21:19;;;;;;;21.63;6.57;;;18.80;99.90;;;;;;4992215;28;20394;-77
2023/10/03 06:23:46;;;;;;;18.67;7.13;;;18.70;99.90;;;;;;4992123;28;20045;-78
2023/10/03 06:26:17;;;;;;;21.58;7.43;;;18.70;99.90;;;;;;4995873;28;20054;-77
2023/10/03 06:28:43;;;;;;;22.77;8.45;;;18.70;99.90;;;;;;4997300;28;20082;-79
2023/10/03 06:31:10;;;;;;;21.77;9.15;;;18.70;99.90;;;;;;4995912;28;20394;-77
2023/10/03 06:33:37;;;;;;;26.90;9.02;;;18.70;99.90;;;;;;4995648;28;20128;-79
2023/10/03 06:36:06;;;;;;;18.23;6.88;;;18.70;99.90;;;;;;4995621;28;20050;-76
2023/10/03 06:38:36;;;;;;;18.65;6.22;;;18.70;99.90;;;;;;4995650;28;20133;-77
2023/10/03 06:41:07;;;;;;;14.85;6.63;;;18.60;99.90;;;;;;4995639;28;20042;-77
2023/10/03 06:43:33;;;;;;;18.52;5.65;;;18.60;99.90;;;;;;4995593;28;20046;-76
2023/10/03 06:45:59;;;;;;;17.73;5.85;;;18.60;99.90;;;;;;4995785;28;20048;-76
2023/10/03 06:48:25;;;;;;;16.83;5.20;;;18.50;99.90;;;;;;4995471;28;20085;-77
2023/10/03 06:50:51;;;;;;;14.02;4.68;;;18.60;99.90;;;;;;4996616;28;20502;-77
2023/10/03 06:53:18;;;;;;;20.13;5.20;;;18.50;99.90;;;;;;4995472;28;20042;-77
2023/10/03 06:55:45;;;;;;;15.60;5.32;;;18.50;99.90;;;;;;4995419;28;20051;-78
2023/10/03 06:58:11;;;;;;;15.40;5.75;;;18.50;99.90;;;;;;4995592;28;20438;-75
2023/10/03 07:00:39;;;;;;;14.65;4.30;;;18.50;99.90;;;;;;4995274;28;20042;-76
2023/10/03 07:03:05;;;;;;;14.07;4.18;;;18.40;99.90;;;;;;4995343;28;20050;-77
2023/10/03 07:05:33;;;;;;;16.40;5.38;;;18.40;99.90;;;;;;4995276;28;20059;-76
2023/10/03 07:07:59;;;;;;;18.17;5.93;;;18.40;99.90;;;;;;4995182;28;20084;-77
2023/10/03 07:10:25;;;;;;;18.73;4.85;;;18.30;99.90;;;;;;4995033;28;20057;-78
2023/10/03 07:12:51;;;;;;;17.35;4.90;;;18.30;99.90;;;;;;4996280;28;20032;-76
2023/10/03 07:15:18;;;;;;;17.10;4.70;;;18.30;99.90;;;;;;4994800;28;20047;-76
2023/10/03 07:17:44;;;;;;;18.65;5.13;;;18.20;99.90;;;;;;4996293;28;20050;-78
2023/10/03 07:20:12;;;;;;;19.75;5.50;;;18.20;99.90;;;;;;4996637;28;20034;-77
2023/10/03 07:22:38;;;;;;;17.25;6.05;;;18.10;99.90;;;;;;4994911;28;20038;-77
2023/10/03 07:25:06;;;;;;;17.73;5.28;;;18.10;99.90;;;;;;4994767;28;20136;-76
2023/10/03 07:27:36;;;;;;;16.40;6.15;;;18.00;99.90;;;;;;4994798;28;20053;-77
2023/10/03 07:30:05;;;;;;;20.20;6.90;;;17.90;99.90;;;;;;4995036;28;20045;-77
2023/10/03 07:32:32;;;;;;;20.83;6.93;;;17.90;99.90;;;;;;4994628;28;20078;-78
2023/10/03 07:34:59;;;;;;;17.10;6.13;;;17.80;99.90;;;;;;4994815;28;20042;-78
2023/10/03 07:37:25;;;;;;;20.65;5.93;;;17.70;99.90;;;;;;4994058;28;20449;-78
2023/10/03 07:39:51;;;;;;;32.03;6.82;;;17.60;99.90;;;;;;4994524;28;20101;-78
2023/10/03 07:42:17;;;;;;;22.63;6.85;;;17.60;99.90;;;;;;4994459;28;20045;-79
2023/10/03 07:44:44;;;;;;;22.17;6.05;;;17.40;99.90;;;;;;4994332;28;20045;-76
2023/10/03 07:47:12;;;;;;;20.02;5.07;;;17.40;99.90;;;;;;4994361;28;20069;-77
2023/10/03 07:49:39;;;;;;;18.83;4.63;;;17.20;99.90;;;;;;4994458;28;20053;-78
2023/10/03 07:52:04;;;;;;;17.52;4.20;;;17.10;99.90;;;;;;4994181;28;20099;-77
2023/10/03 07:54:32;;;;;;;12.27;3.70;;;17.10;99.90;;;;;;4995000;28;20125;-77
2023/10/03 07:57:05;;;;;;;26.13;4.88;;;17.00;99.90;;;;;;4994830;28;20426;-76
2023/10/03 07:59:31;;;;;;;20.77;3.83;;;16.90;99.90;;;;;;4994232;28;20113;-77
2023/10/03 08:01:57;;;;;;;15.70;3.72;;;16.90;99.90;;;;;;4994001;28;20049;-77
2023/10/03 08:04:24;;;;;;;14.95;3.20;;;16.80;99.90;;;;;;4994313;28;20038;-76
2023/10/03 08:06:49;;;;;;;13.45;3.47;;;16.80;99.90;;;;;;4994293;28;20054;-76
2023/10/03 08:09:16;;;;;;;13.15;3.30;;;16.70;99.90;;;;;;4995241;28;20096;-77
2023/10/03 08:11:46;;;;;;;13.15;3.15;;;16.70;99.90;;;;;;4994043;28;20042;-77
2023/10/03 08:14:13;;;;;;;10.55;2.95;;;16.70;99.90;;;;;;4995356;28;20043;-76
2023/10/03 08:16:43;;;;;;;14.55;2.97;;;16.70;99.90;;;;;;4993699;28;20065;-74
2023/10/03 08:19:25;;;;;;;9.05;2.65;;;16.70;99.90;;;;;;4994030;28;20038;-76
2023/10/03 08:21:55;;;;;;;14.45;3.15;;;16.70;99.90;;;;;;4995186;28;20110;-76
2023/10/03 08:24:25;;;;;;;16.13;2.97;;;16.70;99.90;;;;;;4993629;28;20053;-76
2023/10/03 08:27:01;;;;;;;12.13;2.55;;;16.70;99.90;;;;;;4995171;28;20081;-76
2023/10/03 08:29:28;;;;;;;8.13;1.90;;;16.70;99.90;;;;;;4993655;28;20172;-77
2023/10/03 08:31:58;;;;;;;13.65;1.83;;;16.70;99.90;;;;;;4978150;28;20086;-75
2023/10/03 08:34:25;;;;;;;12.07;1.65;;;16.70;99.90;;;;;;4995334;28;20078;-75
2023/10/03 08:36:53;;;;;;;6.50;1.52;;;16.70;99.90;;;;;;4993381;28;20046;-76
2023/10/03 08:39:20;;;;;;;9.80;1.60;;;16.60;99.90;;;;;;4993508;28;20042;-75
2023/10/03 08:41:47;;;;;;;9.10;1.50;;;16.70;99.90;;;;;;4993591;28;20042;-76
2023/10/03 08:44:14;;;;;;;8.02;1.55;;;16.60;99.90;;;;;;4994083;28;20360;-76
2023/10/03 08:46:45;;;;;;;8.55;1.67;;;16.70;99.90;;;;;;4993267;28;20049;-77
2023/10/03 08:49:12;;;;;;;6.82;1.00;;;16.70;99.90;;;;;;4993496;28;20393;-77
2023/10/03 08:51:38;;;;;;;6.00;1.10;;;16.70;99.90;;;;;;4993026;28;20050;-76
2023/10/03 08:54:12;;;;;;;6.45;0.90;;;16.70;99.90;;;;;;4993230;28;20058;-75
2023/10/03 08:56:41;;;;;;;9.90;1.17;;;16.60;99.90;;;;;;4994665;28;20551;-78
2023/10/03 08:59:15;;;;;;;4.30;1.00;;;16.40;99.90;;;;;;4993081;28;20042;-77
2023/10/03 09:01:46;;;;;;;7.97;1.15;;;16.40;99.90;;;;;;4992939;28;20535;-77
2023/10/03 09:04:18;;;;;;;11.88;1.92;;;16.30;99.90;;;;;;4976972;28;20434;-76
2023/10/03 09:06:45;;;;;;;7.32;1.20;;;16.20;99.90;;;;;;4992998;28;20049;-77
2023/10/03 09:09:16;;;;;;;6.72;1.00;;;16.10;99.90;;;;;;4992874;28;20058;-76
2023/10/03 09:11:43;;;;;;;4.38;1.00;;;16.00;99.90;;;;;;4992823;28;20046;-76
2023/10/03 09:14:19;;;;;;;9.05;1.35;;;15.90;99.90;;;;;;4993090;28;20109;-75
2023/10/03 09:16:50;;;;;;;5.68;0.70;;;15.90;99.90;;;;;;4992810;28;20046;-77
2023/10/03 09:19:23;;;;;;;3.78;0.77;;;15.90;99.90;;;;;;4993463;28;20069;-76
2023/10/03 09:21:53;;;;;;;8.50;0.77;;;15.90;99.90;;;;;;4992940;28;20101;-76
2023/10/03 09:24:24;;;;;;;7.63;0.88;;;15.80;99.90;;;;;;4992691;28;20042;-76
2023/10/03 09:26:51;;;;;;;5.43;0.70;;;15.80;99.90;;;;;;4992696;28;20042;-76
2023/10/03 09:29:32;;;;;;;4.68;1.20;;;15.80;99.90;;;;;;4992641;28;20053;-78
2023/10/03 09:32:07;;;;;;;5.72;0.60;;;15.80;99.90;;;;;;4993047;28;20046;-77
2023/10/03 09:34:39;;;;;;;4.28;1.20;;;15.80;99.90;;;;;;4992913;28;20461;-75
2023/10/03 09:37:05;;;;;;;5.90;0.73;;;15.80;99.90;;;;;;4992483;28;20050;-77
2023/10/03 09:39:39;;;;;;;4.78;0.57;;;15.80;99.90;;;;;;4992782;28;20427;-76
2023/10/03 09:42:15;;;;;;;3.22;0.40;;;15.80;99.90;;;;;;4992502;28;20506;-76
2023/10/03 09:44:46;;;;;;;3.60;0.52;;;15.80;99.90;;;;;;4992475;28;20030;-75
2023/10/03 09:47:18;;;;;;;5.47;0.52;;;15.80;99.90;;;;;;4992335;28;20038;-77
2023/10/03 09:49:46;;;;;;;5.03;0.77;;;15.90;99.90;;;;;;4993588;28;20034;-78
2023/10/03 09:52:22;;;;;;;5.20;1.15;;;15.90;99.90;;;;;;4992191;28;20081;-76
2023/10/03 09:54:59;;;;;;;4.88;0.90;;;15.80;99.90;;;;;;4992640;28;20072;-77
2023/10/03 09:57:28;;;;;;;3.38;0.50;;;15.90;99.90;;;;;;4992390;28;20129;-76
2023/10/03 09:59:55;;;;;;;5.65;0.93;;;15.80;99.90;;;;;;4994067;28;20165;-76
2023/10/03 10:02:30;;;;;;;6.68;0.60;;;15.80;99.90;;;;;;4996131;28;20043;-76
2023/10/03 10:04:59;;;;;;;2.13;0.43;;;15.80;99.90;;;;;;4996402;28;20038;-76
2023/10/03 10:07:33;;;;;;;2.40;0.85;;;15.80;99.90;;;;;;4997823;28;20100;-77
2023/10/03 10:10:14;;;;;;;3.93;0.90;;;15.80;99.90;;;;;;4997831;28;20474;-76
2023/10/03 10:13:13;;;;;;;2.17;0.40;;;15.70;99.90;;;;;;4996460;28;20086;-76
2023/10/03 10:16:01;;;;;;;2.50;0.57;;;15.70;99.90;;;;;;4995886;28;20086;-76
2023/10/03 10:18:44;;;;;;;3.83;0.57;;;15.70;99.90;;;;;;4996309;28;20447;-75
2023/10/03 10:21:36;;;;;;;6.20;1.23;;;15.70;99.90;;;;;;4995994;28;20478;-76
2023/10/03 10:24:20;;;;;;;4.35;0.77;;;15.60;99.90;;;;;;4996227;28;20140;-75
2023/10/03 10:26:54;;;;;;;5.78;0.90;;;15.60;99.90;;;;;;4996221;28;20108;-77
2023/10/03 10:29:24;;;;;;;7.50;0.93;;;15.50;99.90;;;;;;4996244;28;20057;-76
2023/10/03 10:32:00;;;;;;;6.25;1.10;;;15.40;99.90;;;;;;4995855;28;20050;-75
2023/10/03 10:34:46;;;;;;;6.03;1.27;;;15.30;99.90;;;;;;4995853;28;20039;-76
2023/10/03 10:37:17;;;;;;;3.65;1.33;;;15.30;99.90;;;;;;4995716;28;20105;-75
2023/10/03 10:39:55;;;;;;;5.95;1.20;;;15.20;99.90;;;;;;4996001;28;20108;-77
2023/10/03 10:42:24;;;;;;;5.82;1.20;;;15.20;99.90;;;;;;4995832;28;20433;-76
2023/10/03 10:45:15;;;;;;;5.97;1.40;;;15.30;99.90;;;;;;4995673;28;20049;-76
2023/10/03 10:47:45;;;;;;;5.95;1.50;;;15.30;99.90;;;;;;4995932;28;20050;-75
2023/10/03 10:50:11;;;;;;;8.18;1.63;;;15.30;99.90;;;;;;4995892;28;20043;-76
2023/10/03 10:52:53;;;;;;;9.25;1.40;;;15.40;99.90;;;;;;4995511;28;20125;-77
2023/10/03 10:55:21;;;;;;;5.68;1.13;;;15.50;99.90;;;;;;4995733;28;20077;-77
2023/10/03 10:57:48;;;;;;;6.95;1.10;;;15.50;99.90;;;;;;4996724;28;20044;-75
2023/10/03 11:00:19;;;;;;;5.75;1.08;;;15.50;99.90;;;;;;4995426;28;20042;-75
2023/10/03 11:02:45;;;;;;;4.18;1.10;;;15.50;99.90;;;;;;4995390;28;20568;-76
2023/10/03 11:05:10;;;;;;;5.68;1.02;;;15.40;99.90;;;;;;4990483;28;20046;-77
2023/10/03 11:07:37;;;;;;;5.47;1.00;;;15.20;99.90;;;;;;4975949;28;20043;-77
2023/10/03 11:10:12;;;;;;;7.68;1.15;;;15.10;99.90;;;;;;4975878;28;20050;-77
2023/10/03 11:12:38;;;;;;;5.85;1.48;;;15.00;99.90;;;;;;4975093;28;20045;-77
2023/10/03 11:15:10;;;;;;;4.25;1.10;;;15.00;99.90;;;;;;4975920;28;20039;-77
2023/10/03 11:17:37;;;;;;;5.00;1.25;;;14.90;99.90;;;;;;4975692;28;20505;-76
2023/10/03 11:20:08;;;;;;;6.10;1.35;;;14.80;99.90;;;;;;4975722;28;20034;-77
2023/10/03 11:22:40;;;;;;;5.43;1.60;;;14.80;99.90;;;;;;4976100;28;20137;-77
2023/10/03 11:25:10;;;;;;;5.28;1.52;;;14.70;99.90;;;;;;4975917;28;20406;-76
2023/10/03 11:27:36;;;;;;;5.78;1.30;;;14.70;99.90;;;;;;4975819;28;20047;-77
2023/10/03 11:30:25;;;;;;;6.53;1.35;;;14.70;99.90;;;;;;4975610;28;20114;-76
2023/10/03 11:33:01;;;;;;;5.93;1.63;;;14.70;99.90;;;;;;4975520;28;20086;-76
2023/10/03 11:35:26;;;;;;;10.80;1.58;;;14.60;99.90;;;;;;4975369;28;20053;-76
2023/10/03 11:37:54;;;;;;;6.88;1.63;;;14.70;99.90;;;;;;4976693;28;20042;-76
2023/10/03 11:40:21;;;;;;;6.82;1.58;;;14.60;99.90;;;;;;4975459;28;20386;-78
2023/10/03 11:42:56;;;;;;;5.38;1.83;;;14.60;99.90;;;;;;4976565;28;20047;-77
2023/10/03 11:45:28;;;;;;;6.00;1.67;;;14.60;99.90;;;;;;4976519;28;20039;-76
2023/10/03 11:48:17;;;;;;;8.88;1.80;;;14.60;99.90;;;;;;4975458;28;20062;-77
2023/10/03 11:50:44;;;;;;;8.35;2.30;;;14.60;99.90;;;;;;4975377;28;20439;-77
2023/10/03 11:53:11;;;;;;;9.05;1.90;;;14.60;99.90;;;;;;4976279;28;20051;-77
2023/10/03 11:55:40;;;;;;;10.50;2.28;;;14.50;99.90;;;;;;4975100;28;20110;-76
2023/10/03 11:58:07;;;;;;;9.18;1.95;;;14.50;99.90;;;;;;4975154;28;20039;-77
2023/10/03 12:00:34;;;;;;;9.32;2.10;;;14.50;99.90;;;;;;4974626;28;20133;-77
2023/10/03 12:02:59;;;;;;;5.53;1.83;;;14.50;99.90;;;;;;4976068;28;20114;-77
2023/10/03 12:05:27;;;;;;;14.07;2.70;;;14.50;99.90;;;;;;4974515;28;20558;-76
2023/10/03 12:07:56;;;;;;;10.25;2.38;;;14.60;99.90;;;;;;4974947;28;20046;-76
2023/10/03 12:10:26;;;;;;;11.73;2.67;;;14.60;99.90;;;;;;4975777;28;20085;-76
2023/10/03 12:12:52;;;;;;;9.32;2.20;;;14.70;99.90;;;;;;4976078;28;20042;-76
2023/10/03 12:15:20;;;;;;;12.30;2.40;;;14.70;99.90;;;;;;4974765;28;20051;-76
2023/10/03 12:17:47;;;;;;;8.48;2.00;;;14.70;99.90;;;;;;4975704;28;20474;-77
2023/10/03 12:20:16;;;;;;;11.10;2.50;;;14.80;99.90;;;;;;4974466;28;20047;-76
2023/10/03 12:22:53;;;;;;;9.95;2.63;;;14.80;99.90;;;;;;4974125;28;20047;-77
2023/10/03 12:25:23;;;;;;;9.55;2.30;;;14.80;99.90;;;;;;4974676;28;20047;-77
2023/10/03 12:27:49;;;;;;;7.35;2.00;;;14.90;99.90;;;;;;4974955;28;20043;-75
2023/10/03 12:30:16;;;;;;;10.55;3.00;;;14.90;99.90;;;;;;4975793;28;20121;-76
2023/10/03 12:32:44;;;;;;;8.52;2.95;;;15.00;99.90;;;;;;4974203;28;20085;-76
2023/10/03 12:35:10;;;;;;;14.50;2.30;;;15.00;99.90;;;;;;4974548;28;20469;-77
2023/10/03 12:37:37;;;;;;;9.80;2.42;;;15.00;99.90;;;;;;4975426;28;20038;-77
2023/10/03 12:40:04;;;;;;;14.27;2.72;;;15.00;99.90;;;;;;4974351;28;20047;-76
2023/10/03 12:42:31;;;;;;;9.27;2.15;;;15.00;99.90;;;;;;4973905;28;20483;-76
2023/10/03 12:45:01;;;;;;;10.32;2.50;;;15.00;99.90;;;;;;4973992;28;20065;-76
2023/10/03 12:47:31;;;;;;;11.40;1.85;;;15.00;99.90;;;;;;4974302;28;20054;-76
2023/10/03 12:49:58;;;;;;;12.10;2.60;;;15.00;99.90;;;;;;4974116;28;20078;-76
2023/10/03 12:52:24;;;;;;;9.77;2.42;;;15.00;99.90;;;;;;4975035;28;20486;-76
2023/10/03 12:54:49;;;;;;;10.25;2.30;;;15.00;99.90;;;;;;4974142;28;20054;-77
2023/10/03 12:57:15;;;;;;;8.18;1.80;;;15.00;99.90;;;;;;4957706;28;20431;-73
2023/10/03 12:59:44;;;;;;;9.68;2.63;;;15.10;99.90;;;;;;4973804;28;20039;-76
2023/10/03 13:02:14;;;;;;;9.80;2.17;;;15.10;99.90;;;;;;4973566;28;20094;-76
2023/10/03 13:04:41;;;;;;;7.90;2.40;;;15.10;99.90;;;;;;4974994;28;20042;-78
2023/10/03 13:07:09;;;;;;;9.32;2.17;;;15.10;99.90;;;;;;4973656;28;20050;-76
2023/10/03 13:09:36;;;;;;;10.00;1.88;;;15.10;99.90;;;;;;4974912;28;20049;-77
2023/10/03 13:12:03;;;;;;;9.05;1.73;;;15.10;99.90;;;;;;4973518;28;20442;-79
2023/10/03 13:14:32;;;;;;;12.35;1.90;;;15.20;99.90;;;;;;4973483;28;20081;-77
2023/10/03 13:17:01;;;;;;;10.60;1.98;;;15.20;99.90;;;;;;4974532;28;20382;-75
2023/10/03 13:19:29;;;;;;;7.80;2.40;;;15.30;99.90;;;;;;4973452;28;20053;-76
2023/10/03 13:21:55;;;;;;;8.63;2.15;;;15.40;99.90;;;;;;4973354;28;20043;-77
2023/10/03 13:24:22;;;;;;;13.70;2.55;;;15.60;99.90;;;;;;4973589;28;20042;-78
2023/10/03 13:26:47;;;;;;;8.35;1.73;;;15.80;99.90;;;;;;4973603;28;20110;-76
2023/10/03 13:29:13;;;;;;;7.60;1.83;;;15.80;99.90;;;;;;4974540;28;20042;-77
2023/10/03 13:31:39;;;;;;;9.77;1.63;;;15.80;99.90;;;;;;4973385;28;20043;-76
2023/10/03 13:34:05;;;;;;;13.18;2.30;;;15.90;99.90;;;;;;4972817;28;20133;-77
2023/10/03 13:36:30;;;;;;;9.40;1.95;;;15.90;99.90;;;;;;4973163;28;20046;-79
2023/10/03 13:38:58;;;;;;;5.63;1.60;;;16.00;99.90;;;;;;4973118;28;20389;-76
2023/10/03 13:41:23;;;;;;;10.43;2.47;;;16.00;99.90;;;;;;4973063;28;20050;-77
2023/10/03 13:43:49;;;;;;;8.88;2.08;;;16.10;99.90;;;;;;4973406;28;20035;-78
2023/10/03 13:46:18;;;;;;;7.43;1.55;;;16.20;99.90;;;;;;4973095;28;20384;-76
2023/10/03 13:48:43;;;;;;;6.07;2.00;;;16.10;99.90;;;;;;4974616;28;20089;-76
2023/10/03 13:51:09;;;;;;;11.15;2.17;;;16.20;99.90;;;;;;4973031;28;20054;-76
2023/10/03 13:53:35;;;;;;;10.90;2.47;;;16.10;99.90;;;;;;4973015;28;20116;-75
2023/10/03 13:56:01;;;;;;;7.20;1.67;;;16.00;99.90;;;;;;4972888;28;20462;-77
2023/10/03 13:58:29;;;;;;;6.30;1.50;;;15.90;99.90;;;;;;4956942;28;20070;-77
2023/10/03 14:00:56;;;;;;;6.63;1.65;;;15.80;99.90;;;;;;4973560;28;20391;-76
2023/10/03 14:03:22;;;;;;;9.43;1.77;;;15.80;99.90;;;;;;4973458;28;20490;-78
2023/10/03 14:05:48;;;;;;;6.32;1.70;;;15.70;99.90;;;;;;4956994;28;20488;-74
2023/10/03 14:08:14;;;;;;;6.10;1.70;;;15.60;99.90;;;;;;4973150;28;20057;-79
2023/10/03 14:10:43;;;;;;;9.00;1.70;;;15.50;99.90;;;;;;4973124;28;20082;-78
2023/10/03 14:13:10;;;;;;;8.50;1.35;;;15.40;99.90;;;;;;4972811;28;20039;-77
2023/10/03 14:15:43;;;;;;;6.55;1.60;;;15.30;99.90;;;;;;4972719;28;20047;-77
2023/10/03 14:18:10;;;;;;;4.90;1.27;;;15.10;99.90;;;;;;4972915;28;20054;-78
2023/10/03 14:20:39;;;;;;;6.72;1.35;;;14.90;99.90;;;;;;4956659;28;20039;-77
2023/10/03 14:23:10;;;;;;;6.85;2.05;;;14.80;99.90;;;;;;4974227;28;20194;-77
2023/10/03 14:25:37;;;;;;;6.97;2.10;;;14.70;99.90;;;;;;4972856;28;20051;-78
2023/10/03 14:28:03;;;;;;;9.23;1.65;;;14.60;99.90;;;;;;4973016;28;20050;-77
2023/10/03 14:30:29;;;;;;;5.95;1.70;;;14.50;99.90;;;;;;4972666;28;20053;-78
2023/10/03 14:32:55;;;;;;;9.18;2.42;;;14.60;99.90;;;;;;4972647;28;20042;-77
2023/10/03 14:35:21;;;;;;;8.18;1.95;;;14.60;99.90;;;;;;5001157;28;20509;-76
2023/10/03 14:37:46;;;;;;;8.82;1.70;;;14.60;99.90;;;;;;5011662;28;20046;-76
2023/10/03 14:40:15;;;;;;;6.80;1.90;;;14.60;99.90;;;;;;5013090;28;20044;-77
2023/10/03 14:42:43;;;;;;;8.38;2.10;;;14.60;99.90;;;;;;5012854;28;20037;-77
2023/10/03 14:45:09;;;;;;;10.23;2.92;;;14.60;99.90;;;;;;5011967;28;20130;-77
2023/10/03 14:47:34;;;;;;;11.27;2.00;;;14.60;99.90;;;;;;5016221;28;20041;-76
2023/10/03 14:50:00;;;;;;;11.63;2.30;;;14.50;99.90;;;;;;5015853;28;20370;-77
2023/10/03 14:52:26;;;;;;;10.82;2.00;;;14.60;99.90;;;;;;5014960;28;20049;-77
2023/10/03 14:54:52;;;;;;;8.82;1.92;;;14.80;99.90;;;;;;5014979;28;20037;-77
2023/10/03 14:57:18;;;;;;;6.28;1.55;;;15.00;99.90;;;;;;5014906;28;20046;-78
2023/10/03 14:59:44;;;;;;;8.02;2.08;;;15.20;99.90;;;;;;5014918;28;20120;-76
2023/10/03 15:02:11;;;;;;;7.38;1.65;;;15.30;99.90;;;;;;5014687;28;20096;-77
2023/10/03 15:04:36;;;;;;;8.70;1.75;;;15.50;99.90;;;;;;5015143;28;20046;-77
2023/10/03 15:07:03;;;;;;;10.43;2.60;;;15.60;99.90;;;;;;5014777;28;20508;-77
2023/10/03 15:09:31;;;;;;;12.07;2.53;;;15.80;99.90;;;;;;5015046;28;20401;-77
2023/10/03 15:11:58;;;;;;;6.90;2.15;;;15.90;99.90;;;;;;5016184;28;20042;-77
2023/10/03 15:14:24;;;;;;;10.85;2.28;;;16.00;99.90;;;;;;5014658;28;20049;-76
2023/10/03 15:16:51;;;;;;;14.13;2.85;;;15.90;99.90;;;;;;5014478;28;20405;-76
2023/10/03 15:19:19;;;;;;;10.95;2.22;;;15.70;99.90;;;;;;5015809;28;20034;-77
2023/10/03 15:21:46;;;;;;;9.80;2.55;;;15.60;99.90;;;;;;5014478;28;20050;-77
2023/10/03 15:24:14;;;;;;;8.18;2.08;;;15.50;99.90;;;;;;4998059;28;20528;-77
2023/10/03 15:26:40;;;;;;;8.35;2.22;;;15.50;99.90;;;;;;5014505;28;20042;-76
2023/10/03 15:29:05;;;;;;;11.15;2.22;;;15.30;99.90;;;;;;5015607;28;20041;-76
2023/10/03 15:31:35;;;;;;;8.68;2.25;;;15.30;99.90;;;;;;5014458;28;20034;-77
2023/10/03 15:34:01;;;;;;;9.15;2.00;;;15.30;99.90;;;;;;5014228;28;20050;-77
2023/10/03 15:36:35;;;;;;;12.35;1.80;;;15.20;99.90;;;;;;5014060;28;20129;-77
2023/10/03 15:39:08;;;;;;;17.60;2.45;;;15.20;99.90;;;;;;5014291;28;20042;-78
2023/10/03 15:41:38;;;;;;;9.77;2.08;;;15.10;99.90;;;;;;5015478;28;20069;-76
2023/10/03 15:44:03;;;;;;;7.07;2.00;;;14.70;99.90;;;;;;5014190;28;20038;-79
2023/10/03 15:46:29;;;;;;;7.20;1.98;;;14.50;99.90;;;;;;5014291;28;20034;-78
2023/10/03 15:48:55;;;;;;;8.30;1.95;;;14.30;99.90;;;;;;5014655;28;20050;-78
2023/10/03 15:51:20;;;;;;;7.38;2.00;;;14.10;99.90;;;;;;5013975;28;20474;-79